createdAt,value
2018-11-21T00:00:19.866Z,30.95
2018-11-21T00:02:49.454Z,30.55
2018-11-21T00:05:18.134Z,31.52
2018-11-21T00:07:46.689Z,32.45
2018-11-21T00:10:15.203Z,31.48
2018-11-21T00:12:46.842Z,33.10
2018-11-21T00:15:15.342Z,29.77
2018-11-21T00:17:43.793Z,32.03
2018-11-21T00:20:12.303Z,30.95
2018-11-21T00:22:40.833Z,32.20
2018-11-21T00:25:09.490Z,33.78
2018-11-21T00:27:38.013Z,33.75
2018-11-21T00:30:09.015Z,32.33
2018-11-21T00:32:37.527Z,30.90
2018-11-21T00:35:09.556Z,33.05
2018-11-21T00:37:38.156Z,32.42
2018-11-21T00:40:11.396Z,32.25
2018-11-21T00:42:46.463Z,30.92
2018-11-21T00:45:09.516Z,35.05
2018-11-21T00:47:38.036Z,31.40
2018-11-21T00:50:06.868Z,32.05
2018-11-21T00:52:35.538Z,33.13
2018-11-21T00:55:04.013Z,32.08
2018-11-21T00:57:32.703Z,33.73
2018-11-21T01:00:01.283Z,31.00
2018-11-21T01:02:29.773Z,33.20
2018-11-21T01:04:58.345Z,29.95
2018-11-21T01:07:26.931Z,32.73
2018-11-21T01:09:55.420Z,34.88
2018-11-21T01:12:23.924Z,33.63
2018-11-21T01:14:52.401Z,32.80
2018-11-21T01:17:20.909Z,31.12
2018-11-21T01:19:49.475Z,31.65
2018-11-21T01:22:17.974Z,32.30
2018-11-21T01:24:46.484Z,34.83
2018-11-21T01:27:14.972Z,32.20
2018-11-21T01:29:43.488Z,34.30
2018-11-21T01:32:12.045Z,32.75
2018-11-21T01:34:40.534Z,30.80
2018-11-21T01:37:09.039Z,33.75
2018-11-21T01:39:37.527Z,34.23
2018-11-21T01:42:06.080Z,31.85
2018-11-21T01:44:34.565Z,33.05
2018-11-21T01:47:03.113Z,33.95
2018-11-21T01:49:31.571Z,32.85
2018-11-21T01:52:00.074Z,32.67
2018-11-21T01:54:28.556Z,32.70
2018-11-21T01:56:57.045Z,33.90
2018-11-21T01:59:25.543Z,33.33
2018-11-21T02:01:54.087Z,32.50
2018-11-21T02:04:22.579Z,31.95
2018-11-21T02:06:51.064Z,32.63
2018-11-21T02:09:19.503Z,34.10
2018-11-21T02:11:48.032Z,33.60
2018-11-21T02:14:16.624Z,35.75
2018-11-21T02:16:45.053Z,35.50
2018-11-21T02:19:13.492Z,33.33
2018-11-21T02:21:42.023Z,34.38
2018-11-21T02:24:10.502Z,33.50
2018-11-21T02:26:38.986Z,33.13
2018-11-21T02:29:07.473Z,31.97
2018-11-21T02:31:38.007Z,35.40
2018-11-21T02:34:06.719Z,33.55
2018-11-21T02:36:35.261Z,34.43
2018-11-21T02:39:05.024Z,32.80
2018-11-21T02:41:33.528Z,33.67
2018-11-21T02:44:02.071Z,34.13
2018-11-21T02:46:31.514Z,33.78
2018-11-21T02:49:00.038Z,35.40
2018-11-21T02:51:28.570Z,33.92
2018-11-21T02:53:57.028Z,33.85
2018-11-21T02:57:15.384Z,35.50
2018-11-21T02:59:43.898Z,32.78
2018-11-21T03:02:12.999Z,34.40
2018-11-21T03:04:41.498Z,34.50
2018-11-21T03:07:10.243Z,33.80
2018-11-21T03:09:38.676Z,34.63
2018-11-21T03:12:08.048Z,35.20
2018-11-21T03:14:36.533Z,35.35
2018-11-21T03:17:05.302Z,34.43
2018-11-21T03:19:33.855Z,35.48
2018-11-21T03:22:02.424Z,36.83
2018-11-21T03:24:30.904Z,33.95
2018-11-21T03:29:27.994Z,35.15
2018-11-21T03:31:56.497Z,34.88
2018-11-21T03:34:25.030Z,33.08
2018-11-21T03:36:54.748Z,35.78
2018-11-21T03:39:24.447Z,35.43
2018-11-21T03:41:52.935Z,36.85
2018-11-21T03:44:21.474Z,36.08
2018-11-21T03:46:55.298Z,34.65
2018-11-21T03:49:23.768Z,33.70
2018-11-21T03:51:52.259Z,35.13
2018-11-21T03:54:20.806Z,36.08
2018-11-21T03:56:49.390Z,33.70
2018-11-21T03:59:17.893Z,40.08
2018-11-21T04:01:46.395Z,34.55
2018-11-21T04:04:14.931Z,34.73
2018-11-21T04:06:43.545Z,36.30
2018-11-21T04:09:13.063Z,33.55
2018-11-21T04:11:41.554Z,35.23
2018-11-21T04:14:13.092Z,33.88
2018-11-21T04:16:41.562Z,38.00
2018-11-21T04:19:10.077Z,37.17
2018-11-21T04:21:38.567Z,35.05
2018-11-21T04:24:07.075Z,36.08
2018-11-21T04:26:35.640Z,38.28
2018-11-21T04:29:04.252Z,35.15
2018-11-21T04:31:32.736Z,32.70
2018-11-21T04:34:01.220Z,34.53
2018-11-21T04:36:29.689Z,38.88
2018-11-21T04:38:58.175Z,36.75
2018-11-21T04:41:26.669Z,35.20
2018-11-21T04:43:55.198Z,35.88
2018-11-21T04:46:23.672Z,34.08
2018-11-21T04:48:52.206Z,37.83
2018-11-21T04:51:20.733Z,35.80
2018-11-21T04:53:49.174Z,36.98
2018-11-21T04:56:17.681Z,35.78
2018-11-21T04:58:46.209Z,36.30
2018-11-21T05:01:14.674Z,37.75
2018-11-21T05:03:43.175Z,35.88
2018-11-21T05:06:11.692Z,37.60
2018-11-21T05:08:40.214Z,33.95
2018-11-21T05:11:08.724Z,35.95
2018-11-21T05:13:37.220Z,36.25
2018-11-21T05:16:06.299Z,37.23
2018-11-21T05:18:35.837Z,35.38
2018-11-21T05:21:04.486Z,34.83
2018-11-21T05:23:32.983Z,36.28
2018-11-21T05:26:01.519Z,34.33
2018-11-21T05:28:30.018Z,37.00
2018-11-21T05:30:58.532Z,35.30
2018-11-21T05:33:27.722Z,35.38
2018-11-21T05:35:56.246Z,36.83
2018-11-21T05:38:24.757Z,36.83
2018-11-21T05:40:53.989Z,37.15
2018-11-21T05:43:22.541Z,35.80
2018-11-21T05:45:50.997Z,36.17
2018-11-21T05:48:19.568Z,38.05
2018-11-21T05:50:48.135Z,36.20
2018-11-21T05:53:16.603Z,38.78
2018-11-21T05:55:45.155Z,40.65
2018-11-21T05:58:13.653Z,40.55
2018-11-21T06:00:42.208Z,40.92
2018-11-21T06:03:10.737Z,38.90
2018-11-21T06:05:39.367Z,40.60
2018-11-21T06:08:07.902Z,43.10
2018-11-21T06:10:36.370Z,39.20
2018-11-21T06:13:04.903Z,40.98
2018-11-21T06:15:33.405Z,38.85
2018-11-21T06:18:01.960Z,40.08
2018-11-21T06:20:30.456Z,38.60
2018-11-21T06:22:58.926Z,36.98
2018-11-21T06:25:27.434Z,39.40
2018-11-21T06:27:56.000Z,41.92
2018-11-21T06:30:24.497Z,39.92
2018-11-21T06:32:52.945Z,37.38
2018-11-21T06:35:21.477Z,36.85
2018-11-21T06:37:52.364Z,38.88
2018-11-21T06:40:20.863Z,37.78
2018-11-21T06:42:53.218Z,37.67
2018-11-21T06:45:22.522Z,39.55
2018-11-21T06:47:51.015Z,37.48
2018-11-21T06:50:19.545Z,36.03
2018-11-21T06:52:48.147Z,37.90
2018-11-21T06:55:16.632Z,38.23
2018-11-21T06:57:45.204Z,37.75
2018-11-21T07:00:13.689Z,35.70
2018-11-21T07:02:42.274Z,38.75
2018-11-21T07:05:11.634Z,36.08
2018-11-21T07:07:40.076Z,34.83
2018-11-21T07:10:11.297Z,39.03
2018-11-21T07:12:39.810Z,38.45
2018-11-21T07:15:08.448Z,38.65
2018-11-21T07:17:37.061Z,39.92
2018-11-21T07:20:07.872Z,40.43
2018-11-21T07:22:36.677Z,39.45
2018-11-21T07:25:10.246Z,39.88
2018-11-21T07:27:38.827Z,40.33
2018-11-21T07:30:09.844Z,40.52
2018-11-21T07:32:38.341Z,40.10
2018-11-21T07:35:07.755Z,40.30
2018-11-21T07:37:36.272Z,40.95
2018-11-21T07:40:06.866Z,39.55
2018-11-21T07:42:35.399Z,40.90
2018-11-21T07:45:03.867Z,40.15
2018-11-21T07:47:32.557Z,42.08
2018-11-21T07:50:01.063Z,41.37
2018-11-21T07:52:29.853Z,39.85
2018-11-21T07:54:58.280Z,37.60
2018-11-21T07:57:33.987Z,41.53
2018-11-21T08:00:57.201Z,41.25
2018-11-21T08:03:27.243Z,39.30
2018-11-21T08:05:58.387Z,41.15
2018-11-21T08:08:54.349Z,38.98
2018-11-21T08:11:50.845Z,40.55
2018-11-21T08:14:38.590Z,39.80
2018-11-21T08:17:25.943Z,41.30
2018-11-21T08:20:43.139Z,38.10
2018-11-21T08:23:47.283Z,42.23
2018-11-21T08:29:25.210Z,38.13
2018-11-21T08:31:53.714Z,39.10
2018-11-21T08:34:22.229Z,37.30
2018-11-21T08:36:50.723Z,39.85
2018-11-21T08:39:19.151Z,40.38
2018-11-21T08:42:15.979Z,38.05
2018-11-21T08:44:44.630Z,41.92
2018-11-21T08:55:50.876Z,37.80
2018-11-21T08:58:58.803Z,38.85
2018-11-21T09:01:27.259Z,36.80
2018-11-21T09:03:55.702Z,40.30
2018-11-21T09:06:24.203Z,41.45
2018-11-21T09:08:52.718Z,41.48
2018-11-21T09:11:21.163Z,41.02
2018-11-21T09:13:53.158Z,41.37
2018-11-21T09:16:18.157Z,43.00
2018-11-21T09:18:46.627Z,40.15
2018-11-21T09:21:15.110Z,38.80
2018-11-21T09:23:43.597Z,40.58
2018-11-21T09:26:12.030Z,38.38
2018-11-21T09:28:40.515Z,42.35
2018-11-21T09:31:08.988Z,41.73
2018-11-21T09:33:38.132Z,40.15
2018-11-21T09:36:07.492Z,43.48
2018-11-21T09:38:35.962Z,40.85
2018-11-21T09:41:04.609Z,40.08
2018-11-21T09:43:32.977Z,38.98
2018-11-21T09:46:01.447Z,40.20
2018-11-21T09:48:29.901Z,39.00
2018-11-21T09:50:58.426Z,40.12
2018-11-21T09:53:26.891Z,41.35
2018-11-21T09:55:55.755Z,38.83
2018-11-21T09:58:24.200Z,40.38
2018-11-21T10:01:29.581Z,38.33
2018-11-21T10:04:00.883Z,40.00
2018-11-21T10:06:28.835Z,39.00
2018-11-21T10:09:06.476Z,37.83
2018-11-21T10:11:36.158Z,39.70
2018-11-21T10:14:05.013Z,42.25
2018-11-21T10:16:33.489Z,39.98
2018-11-21T10:19:02.135Z,37.75
2018-11-21T10:21:32.762Z,41.83
2018-11-21T10:24:01.402Z,39.18
2018-11-21T10:26:29.821Z,32.35
2018-11-21T10:28:58.321Z,48.80
2018-11-21T10:31:26.844Z,42.33
2018-11-21T10:33:55.291Z,38.45
2018-11-21T10:36:23.801Z,42.83
2018-11-21T10:38:52.268Z,42.85
2018-11-21T10:41:20.731Z,41.45
2018-11-21T10:43:49.268Z,42.58
2018-11-21T10:46:17.842Z,40.28
2018-11-21T10:48:46.267Z,40.98
2018-11-21T10:51:15.829Z,42.55
2018-11-21T10:53:44.395Z,42.45
2018-11-21T10:56:13.144Z,44.33
2018-11-21T10:58:41.691Z,40.40
2018-11-21T11:09:14.586Z,43.48
2018-11-21T11:22:32.954Z,40.92
2018-11-21T11:25:25.120Z,38.35
2018-11-21T11:28:14.649Z,41.80
2018-11-21T11:30:58.962Z,39.00
2018-11-21T11:33:45.739Z,41.70
2018-11-21T11:36:49.464Z,39.38
2018-11-21T11:39:30.771Z,39.40
2018-11-21T11:42:19.317Z,41.92
2018-11-21T11:45:14.385Z,38.63
2018-11-21T11:48:09.975Z,41.85
2018-11-21T11:50:57.793Z,43.00
2018-11-21T11:53:44.381Z,40.05
2018-11-21T11:59:59.698Z,40.60
2018-11-21T12:02:46.221Z,37.85
2018-11-21T12:05:32.427Z,40.30
2018-11-21T12:08:40.896Z,40.83
2018-11-21T12:21:40.552Z,42.30
2018-11-21T12:24:49.346Z,41.75
2018-11-21T12:27:59.373Z,42.35
2018-11-21T12:30:54.689Z,48.25
2018-11-21T12:33:41.228Z,40.75
2018-11-21T12:37:31.619Z,42.27
2018-11-21T12:39:31.421Z,42.45
2018-11-21T12:42:34.014Z,40.80
2018-11-21T12:45:32.043Z,42.58
2018-11-21T12:48:59.979Z,41.18
2018-11-21T12:51:54.154Z,42.30
2018-11-21T12:54:40.596Z,40.15
2018-11-21T13:05:29.398Z,41.28
2018-11-21T13:08:36.221Z,41.33
2018-11-21T13:11:22.670Z,40.75
2018-11-21T13:14:09.075Z,42.50
2018-11-21T13:17:08.945Z,43.83
2018-11-21T13:20:24.535Z,39.03
2018-11-21T13:23:15.185Z,40.52
2018-11-21T13:26:02.234Z,41.25
2018-11-21T13:28:59.968Z,46.15
2018-11-21T13:31:49.635Z,42.05
2018-11-21T13:34:29.841Z,41.80
2018-11-21T13:37:16.469Z,42.53
2018-11-21T13:40:21.438Z,44.10
2018-11-21T13:43:15.664Z,39.15
2018-11-21T13:46:16.341Z,40.55
2018-11-21T13:49:04.757Z,40.83
2018-11-21T13:52:11.362Z,41.83
2018-11-21T13:54:59.825Z,43.00
2018-11-21T13:57:31.962Z,41.23
2018-11-21T14:00:00.889Z,42.25
2018-11-21T14:02:30.283Z,43.23
2018-11-21T14:04:58.916Z,43.75
2018-11-21T14:07:27.490Z,44.05
2018-11-21T14:09:56.016Z,42.62
2018-11-21T14:12:24.853Z,42.70
2018-11-21T14:14:53.787Z,42.88
2018-11-21T14:17:27.610Z,42.15
2018-11-21T14:19:50.805Z,41.10
2018-11-21T14:22:19.357Z,42.88
2018-11-21T14:24:48.659Z,42.25
2018-11-21T14:27:17.248Z,42.08
2018-11-21T14:29:45.708Z,43.08
2018-11-21T14:32:14.216Z,39.60
2018-11-21T14:34:43.538Z,40.80
2018-11-21T14:37:12.017Z,37.13
2018-11-21T14:39:40.539Z,38.45
2018-11-21T14:42:09.490Z,38.75
2018-11-21T14:44:37.935Z,39.83
2018-11-21T14:47:09.056Z,40.33
2018-11-21T14:49:37.895Z,41.23
2018-11-21T14:52:06.445Z,37.25
2018-11-21T14:54:36.831Z,37.00
2018-11-21T14:57:05.584Z,40.00
2018-11-21T14:59:34.106Z,37.63
2018-11-21T15:02:02.637Z,36.75
2018-11-21T15:04:31.192Z,37.48
2018-11-21T15:06:59.705Z,36.17
2018-11-21T15:09:28.221Z,36.48
2018-11-21T15:11:56.800Z,39.35
2018-11-21T15:14:26.062Z,37.42
2018-11-21T15:16:54.591Z,34.40
2018-11-21T15:19:23.190Z,34.83
2018-11-21T15:21:52.048Z,35.33
2018-11-21T15:24:20.605Z,33.02
2018-11-21T15:26:49.163Z,33.08
2018-11-21T15:29:17.662Z,33.08
2018-11-21T15:31:46.229Z,31.87
2018-11-21T15:34:14.809Z,32.05
2018-11-21T15:36:43.366Z,28.07
2018-11-21T15:39:12.427Z,32.25
2018-11-21T15:41:41.459Z,32.17
2018-11-21T15:44:10.271Z,30.77
2018-11-21T15:46:45.422Z,31.30
2018-11-21T15:49:07.380Z,29.37
2018-11-21T15:51:37.328Z,31.12
2018-11-21T15:54:05.986Z,30.62
2018-11-21T15:56:37.012Z,30.50
2018-11-21T15:59:05.635Z,29.25
2018-11-21T16:01:34.206Z,27.05
2018-11-21T16:04:02.812Z,30.50
2018-11-21T16:06:32.432Z,31.30
2018-11-21T16:09:02.030Z,28.10
2018-11-21T16:11:31.156Z,28.57
2018-11-21T16:14:01.869Z,27.48
2018-11-21T16:16:30.518Z,29.25
2018-11-21T16:18:59.173Z,26.87
2018-11-21T16:21:27.713Z,30.15
2018-11-21T16:23:56.271Z,32.13
2018-11-21T16:26:24.850Z,25.60
2018-11-21T16:28:53.444Z,25.88
2018-11-21T16:31:25.254Z,30.37
2018-11-21T16:34:16.317Z,26.65
2018-11-21T16:36:51.982Z,28.95
2018-11-21T16:39:29.663Z,26.37
2018-11-21T16:41:57.512Z,26.45
2018-11-21T16:44:24.704Z,29.57
2018-11-21T16:46:53.187Z,28.55
2018-11-21T16:49:21.648Z,27.25
2018-11-21T16:51:50.113Z,26.30
2018-11-21T16:54:18.554Z,27.90
2018-11-21T16:56:47.053Z,26.95
2018-11-21T16:59:15.492Z,26.57
2018-11-21T17:01:44.228Z,26.05
2018-11-21T17:04:12.717Z,23.85
2018-11-21T17:06:41.217Z,24.52
2018-11-21T17:09:11.037Z,26.25
2018-11-21T17:11:39.620Z,26.93
2018-11-21T17:14:08.165Z,25.05
2018-11-21T17:16:36.649Z,25.52
2018-11-21T17:19:05.357Z,27.77
2018-11-21T17:21:33.935Z,26.27
2018-11-21T17:24:07.894Z,27.50
2018-11-21T17:26:36.406Z,25.62
2018-11-21T17:29:08.603Z,27.22
2018-11-21T17:31:33.458Z,28.83
2018-11-21T17:34:01.994Z,26.68
2018-11-21T17:36:45.983Z,27.20
2018-11-21T17:40:11.155Z,26.05
2018-11-21T17:42:45.747Z,25.02
2018-11-21T17:45:17.833Z,26.87
2018-11-21T17:48:37.264Z,29.05
2018-11-21T17:51:05.695Z,26.57
2018-11-21T17:53:34.269Z,26.80
2018-11-21T17:56:27.068Z,28.15
2018-11-21T17:58:55.680Z,27.98
2018-11-21T18:01:24.258Z,27.75
2018-11-21T18:04:00.941Z,28.65
2018-11-21T18:06:29.446Z,27.35
2018-11-21T18:08:57.915Z,29.98
2018-11-21T18:11:26.483Z,30.32
2018-11-21T18:13:54.889Z,28.70
2018-11-21T18:16:23.366Z,26.60
2018-11-21T18:19:24.631Z,28.25
2018-11-21T18:21:53.069Z,28.17
2018-11-21T18:24:41.582Z,28.90
2018-11-21T18:27:10.088Z,28.87
2018-11-21T18:29:38.563Z,30.85
2018-11-21T18:32:07.082Z,30.57
2018-11-21T18:34:37.534Z,31.05
2018-11-21T18:37:05.997Z,31.75
2018-11-21T18:39:34.548Z,29.57
2018-11-21T18:42:13.368Z,28.95
2018-11-21T18:44:37.784Z,42.17
2018-11-21T18:47:06.395Z,48.90
2018-11-21T18:49:34.837Z,50.92
2018-11-21T18:52:43.024Z,36.85
2018-11-21T18:56:05.199Z,28.45
2018-11-21T18:59:15.645Z,29.02
2018-11-21T19:08:35.026Z,29.32
2018-11-21T19:11:48.306Z,30.75
2018-11-21T19:28:04.165Z,31.82
2018-11-21T19:31:45.781Z,28.05
2018-11-21T19:43:45.381Z,32.95
2018-11-21T21:33:21.007Z,35.30
2018-11-21T21:35:51.072Z,35.85
2018-11-21T21:38:21.689Z,37.13
2018-11-21T21:40:51.625Z,36.70
2018-11-21T21:43:20.159Z,35.15
